createdAt,value
2023-02-19T00:01:46.266Z,6.35
2023-02-19T00:04:16.396Z,5.55
2023-02-19T00:06:44.818Z,6.07
2023-02-19T00:09:13.239Z,4.63
2023-02-19T00:11:41.053Z,5.45
2023-02-19T00:14:08.263Z,6.13
2023-02-19T00:16:37.630Z,5.00
2023-02-19T00:19:07.822Z,5.43
2023-02-19T00:21:35.082Z,5.22
2023-02-19T00:24:04.039Z,5.30
2023-02-19T00:26:31.266Z,5.55
2023-02-19T00:28:58.817Z,5.07
2023-02-19T00:31:33.207Z,4.38
2023-02-19T00:34:03.081Z,4.60
2023-02-19T00:36:31.002Z,4.28
2023-02-19T00:38:58.056Z,4.72
2023-02-19T00:41:25.602Z,4.85
2023-02-19T00:44:00.901Z,4.38
2023-02-19T00:46:47.710Z,4.40
2023-02-19T00:49:22.985Z,4.28
2023-02-19T00:51:52.024Z,3.60
2023-02-19T00:54:19.841Z,3.53
2023-02-19T00:56:47.464Z,4.30
2023-02-19T00:59:15.076Z,4.22
2023-02-19T01:01:44.601Z,4.40
2023-02-19T01:04:12.120Z,3.78
2023-02-19T01:06:39.112Z,3.85
2023-02-19T01:09:07.724Z,3.70
2023-02-19T01:11:34.729Z,3.85
2023-02-19T01:14:01.917Z,4.18
2023-02-19T01:16:29.329Z,4.03
2023-02-19T01:18:57.831Z,4.40
2023-02-19T01:21:27.035Z,3.42
2023-02-19T01:23:54.455Z,3.47
2023-02-19T01:26:32.457Z,2.88
2023-02-19T01:29:00.583Z,3.58
2023-02-19T01:31:27.950Z,3.58
2023-02-19T01:33:57.875Z,3.08
2023-02-19T01:36:26.033Z,2.83
2023-02-19T01:38:53.019Z,3.30
2023-02-19T01:41:22.866Z,3.55
2023-02-19T01:44:18.219Z,3.05
2023-02-19T01:46:48.517Z,3.20
2023-02-19T01:49:15.316Z,3.05
2023-02-19T01:51:48.298Z,3.25
2023-02-19T01:54:18.108Z,3.03
2023-02-19T01:56:47.570Z,3.17
2023-02-19T01:59:15.044Z,2.92
2023-02-19T02:01:42.170Z,3.28
2023-02-19T02:04:11.991Z,3.15
2023-02-19T02:06:49.315Z,3.30
2023-02-19T02:09:38.284Z,3.33
2023-02-19T02:12:05.602Z,2.75
2023-02-19T02:14:36.958Z,3.03
2023-02-19T02:17:37.839Z,2.35
2023-02-19T02:20:38.682Z,3.00
2023-02-19T02:23:40.487Z,3.30
2023-02-19T02:26:10.195Z,2.70
2023-02-19T02:28:58.990Z,3.40
2023-02-19T02:32:20.063Z,2.80
2023-02-19T02:35:13.728Z,2.67
2023-02-19T02:37:43.979Z,2.90
2023-02-19T02:40:12.219Z,2.70
2023-02-19T02:42:40.252Z,3.50
2023-02-19T02:45:35.593Z,3.22
2023-02-19T02:48:41.044Z,3.20
2023-02-19T02:51:41.432Z,2.75
2023-02-19T02:54:40.271Z,3.17
2023-02-19T02:57:09.466Z,2.70
2023-02-19T02:59:39.860Z,3.33
2023-02-19T03:02:14.950Z,3.17
2023-02-19T03:05:21.805Z,3.17
2023-02-19T03:07:54.999Z,3.00
2023-02-19T03:10:34.115Z,3.28
2023-02-19T03:13:21.350Z,2.92
2023-02-19T03:16:11.483Z,3.22
2023-02-19T03:18:59.936Z,3.30
2023-02-19T03:21:29.071Z,3.38
2023-02-19T03:24:15.679Z,3.92
2023-02-19T03:26:46.121Z,3.40
2023-02-19T03:29:23.843Z,3.55
2023-02-19T03:31:58.899Z,2.97
2023-02-19T03:34:51.446Z,2.95
2023-02-19T03:37:32.509Z,3.40
2023-02-19T03:39:59.520Z,3.97
2023-02-19T03:42:41.626Z,4.03
2023-02-19T03:45:25.728Z,3.35
2023-02-19T03:48:16.036Z,3.10
2023-02-19T03:51:21.170Z,2.85
2023-02-19T03:54:34.919Z,3.20
2023-02-19T03:57:14.367Z,3.75
2023-02-19T04:00:15.928Z,3.58
2023-02-19T04:03:11.857Z,3.30
2023-02-19T04:05:46.848Z,3.08
2023-02-19T04:08:20.384Z,3.65
2023-02-19T04:10:48.958Z,2.70
2023-02-19T04:13:26.693Z,3.45
2023-02-19T04:15:57.615Z,2.90
2023-02-19T04:18:31.640Z,3.80
2023-02-19T04:21:00.534Z,3.40
2023-02-19T04:23:34.817Z,2.85
2023-02-19T04:26:03.137Z,3.72
2023-02-19T04:28:31.372Z,2.92
2023-02-19T04:30:58.345Z,2.50
2023-02-19T04:33:25.417Z,3.63
2023-02-19T04:35:52.460Z,2.85
2023-02-19T04:38:19.544Z,3.38
2023-02-19T04:40:47.184Z,3.25
2023-02-19T04:43:14.081Z,2.53
2023-02-19T04:45:40.951Z,3.38
2023-02-19T04:48:07.898Z,3.08
2023-02-19T04:50:35.000Z,3.08
2023-02-19T04:53:01.903Z,3.47
2023-02-19T04:55:28.839Z,2.95
2023-02-19T04:57:55.685Z,2.88
2023-02-19T05:00:22.768Z,3.17
2023-02-19T05:02:50.148Z,2.72
2023-02-19T05:05:17.338Z,2.45
2023-02-19T05:07:44.407Z,2.97
2023-02-19T05:10:11.584Z,3.08
2023-02-19T05:12:38.544Z,2.88
2023-02-19T05:15:05.536Z,2.65
2023-02-19T05:17:35.455Z,2.97
2023-02-19T05:20:02.608Z,3.88
2023-02-19T05:22:33.019Z,2.58
2023-02-19T05:25:00.176Z,3.03
2023-02-19T05:27:27.176Z,2.95
2023-02-19T05:29:54.066Z,3.17
2023-02-19T05:32:21.168Z,2.63
2023-02-19T05:34:48.112Z,3.03
2023-02-19T05:37:16.470Z,3.45
2023-02-19T05:39:43.339Z,2.42
2023-02-19T05:42:10.165Z,3.15
2023-02-19T05:44:37.187Z,2.90
2023-02-19T05:47:04.077Z,2.95
2023-02-19T05:49:30.856Z,2.30
2023-02-19T05:51:57.897Z,2.60
2023-02-19T05:54:24.922Z,2.42
2023-02-19T05:56:51.818Z,2.58
2023-02-19T05:59:21.012Z,2.55
2023-02-19T06:01:49.460Z,2.33
2023-02-19T06:04:19.230Z,3.22
2023-02-19T06:06:47.054Z,3.13
2023-02-19T06:09:14.069Z,3.40
2023-02-19T06:11:40.970Z,3.17
2023-02-19T06:14:07.806Z,2.67
2023-02-19T06:16:34.594Z,2.67
2023-02-19T06:19:04.940Z,2.55
2023-02-19T06:21:32.078Z,2.33
2023-02-19T06:23:59.008Z,2.28
2023-02-19T06:26:26.572Z,2.45
2023-02-19T06:28:54.666Z,2.80
2023-02-19T06:31:22.444Z,2.55
2023-02-19T06:33:50.783Z,2.92
2023-02-19T06:36:20.261Z,2.53
2023-02-19T06:38:47.347Z,2.60
2023-02-19T06:41:14.981Z,2.85
2023-02-19T06:43:42.243Z,2.42
2023-02-19T06:46:11.181Z,3.08
2023-02-19T06:48:39.301Z,2.70
2023-02-19T06:51:06.346Z,2.10
2023-02-19T06:53:33.207Z,3.00
2023-02-19T06:56:30.725Z,2.42
2023-02-19T06:59:00.361Z,2.17
2023-02-19T07:01:29.164Z,2.53
2023-02-19T07:03:56.299Z,2.70
2023-02-19T07:06:24.383Z,2.83
2023-02-19T07:08:52.811Z,2.03
2023-02-19T07:11:19.831Z,3.20
2023-02-19T07:13:46.749Z,2.50
2023-02-19T07:16:14.267Z,2.70
2023-02-19T07:18:41.489Z,2.10
2023-02-19T07:21:12.220Z,2.67
2023-02-19T07:23:40.016Z,2.47
2023-02-19T07:26:11.455Z,2.25
2023-02-19T07:28:38.727Z,2.78
2023-02-19T07:31:05.971Z,2.63
2023-02-19T07:33:32.894Z,2.15
2023-02-19T07:35:59.708Z,2.17
2023-02-19T07:38:27.679Z,2.33
2023-02-19T07:40:59.621Z,2.15
2023-02-19T07:43:29.039Z,2.35
2023-02-19T07:45:56.356Z,2.65
2023-02-19T07:48:23.753Z,2.42
2023-02-19T07:50:57.908Z,2.55
2023-02-19T07:53:27.099Z,2.40
2023-02-19T07:55:54.225Z,2.17
2023-02-19T07:58:21.367Z,2.60
2023-02-19T08:00:48.427Z,2.65
2023-02-19T08:03:16.113Z,2.70
2023-02-19T08:05:43.448Z,2.63
2023-02-19T08:08:13.566Z,2.88
2023-02-19T08:10:59.996Z,2.65
2023-02-19T08:13:30.160Z,2.55
2023-02-19T08:16:16.321Z,2.65
2023-02-19T08:18:46.390Z,2.33
2023-02-19T08:21:13.574Z,3.05
2023-02-19T08:23:40.700Z,3.13
2023-02-19T08:26:08.662Z,2.50
2023-02-19T08:28:35.864Z,2.40
2023-02-19T08:31:05.315Z,2.42
2023-02-19T08:33:32.485Z,3.55
2023-02-19T08:36:04.805Z,2.42
2023-02-19T08:38:35.839Z,2.90
2023-02-19T08:41:12.715Z,2.60
2023-02-19T08:43:41.119Z,3.10
2023-02-19T08:46:12.910Z,3.47
2023-02-19T08:48:40.907Z,2.72
2023-02-19T08:51:10.954Z,2.58
2023-02-19T08:53:39.792Z,3.38
2023-02-19T08:56:11.812Z,3.13
2023-02-19T08:58:39.160Z,3.08
2023-02-19T09:01:15.721Z,2.58
2023-02-19T09:03:43.652Z,3.15
2023-02-19T09:06:16.323Z,3.08
2023-02-19T09:08:43.380Z,2.10
2023-02-19T09:11:10.696Z,3.25
2023-02-19T09:13:37.865Z,2.78
2023-02-19T09:16:05.532Z,2.63
2023-02-19T09:18:33.088Z,2.90
2023-02-19T09:21:01.990Z,2.72
2023-02-19T09:23:29.197Z,2.67
2023-02-19T09:26:00.438Z,2.90
2023-02-19T09:28:28.048Z,2.80
2023-02-19T09:30:55.317Z,2.33
2023-02-19T09:33:22.522Z,2.58
2023-02-19T09:35:49.351Z,2.42
2023-02-19T09:38:16.362Z,3.00
2023-02-19T09:40:43.456Z,2.38
2023-02-19T09:43:18.614Z,2.63
2023-02-19T09:45:45.837Z,2.83
2023-02-19T09:48:13.228Z,2.40
2023-02-19T09:50:45.757Z,2.67
2023-02-19T09:53:25.370Z,2.88
2023-02-19T09:55:53.704Z,2.75
2023-02-19T09:58:32.219Z,3.25
2023-02-19T10:01:02.826Z,2.53
2023-02-19T10:03:41.281Z,2.63
2023-02-19T10:06:23.932Z,3.30
2023-02-19T10:09:21.794Z,2.67
2023-02-19T10:11:49.914Z,2.65
2023-02-19T10:14:30.022Z,2.80
2023-02-19T10:16:59.699Z,3.50
2023-02-19T10:19:26.726Z,2.70
2023-02-19T10:21:53.910Z,2.90
2023-02-19T10:24:27.126Z,3.17
2023-02-19T10:26:54.404Z,3.10
2023-02-19T10:29:22.121Z,2.80
2023-02-19T10:31:49.210Z,3.22
2023-02-19T10:34:22.899Z,2.47
2023-02-19T10:36:51.648Z,2.80
2023-02-19T10:39:21.655Z,3.70
2023-02-19T10:41:54.712Z,3.30
2023-02-19T10:44:32.229Z,3.40
2023-02-19T10:47:01.069Z,2.78
2023-02-19T10:49:48.851Z,2.95
2023-02-19T10:52:26.984Z,2.33
2023-02-19T10:54:58.374Z,3.00
2023-02-19T10:57:31.358Z,2.85
2023-02-19T11:00:04.069Z,2.85
2023-02-19T11:02:32.015Z,3.10
2023-02-19T11:05:05.186Z,2.53
2023-02-19T11:07:32.610Z,3.08
2023-02-19T11:10:00.450Z,3.45
2023-02-19T11:12:33.837Z,2.35
2023-02-19T11:15:18.701Z,2.88
2023-02-19T11:17:46.065Z,2.88
2023-02-19T11:20:17.808Z,2.90
2023-02-19T11:22:49.431Z,3.13
2023-02-19T11:25:17.255Z,3.17
2023-02-19T11:28:04.977Z,3.25
2023-02-19T11:30:36.019Z,2.20
2023-02-19T11:33:20.787Z,2.20
2023-02-19T11:35:52.795Z,2.88
2023-02-19T11:38:21.659Z,3.00
2023-02-19T11:40:53.566Z,1.85
2023-02-19T11:43:23.534Z,2.17
2023-02-19T11:46:02.558Z,2.25
2023-02-19T11:48:48.352Z,2.20
2023-02-19T11:51:53.138Z,1.77
2023-02-19T11:54:32.152Z,1.88
2023-02-19T11:57:23.761Z,2.28
2023-02-19T12:00:07.755Z,2.13
2023-02-19T12:03:00.876Z,2.40
2023-02-19T12:05:56.916Z,2.38
2023-02-19T12:09:01.767Z,2.72
2023-02-19T12:11:59.582Z,2.90
2023-02-19T12:14:50.548Z,3.25
2023-02-19T12:17:35.722Z,2.88
2023-02-19T12:20:19.462Z,2.20
2023-02-19T12:23:13.297Z,2.38
2023-02-19T12:25:56.803Z,2.63
2023-02-19T12:28:57.239Z,2.70
2023-02-19T12:32:09.988Z,2.53
2023-02-19T12:34:42.902Z,2.25
2023-02-19T12:37:21.651Z,2.38
2023-02-19T12:40:14.304Z,2.38
2023-02-19T12:43:06.830Z,2.67
2023-02-19T12:45:37.733Z,3.17
2023-02-19T12:48:27.381Z,3.60
2023-02-19T12:51:08.238Z,4.70
2023-02-19T12:53:52.871Z,4.65
2023-02-19T12:56:31.350Z,3.65
2023-02-19T12:59:10.284Z,3.30
2023-02-19T13:01:48.674Z,3.03
2023-02-19T13:04:15.927Z,4.90
2023-02-19T13:07:05.572Z,6.88
2023-02-19T13:09:51.058Z,7.03
2023-02-19T13:12:29.111Z,6.50
2023-02-19T13:15:01.135Z,4.72
2023-02-19T13:17:45.061Z,3.90
2023-02-19T13:20:27.449Z,3.83
2023-02-19T13:23:34.858Z,4.28
2023-02-19T13:26:32.432Z,5.10
2023-02-19T13:29:25.964Z,4.90
2023-02-19T13:32:18.053Z,5.03
2023-02-19T13:35:17.023Z,5.85
2023-02-19T13:37:45.145Z,6.85
2023-02-19T13:40:27.307Z,7.35
2023-02-19T13:43:00.568Z,7.07
2023-02-19T13:45:46.335Z,7.05
2023-02-19T13:48:28.953Z,7.40
2023-02-19T13:51:23.735Z,6.97
2023-02-19T13:53:56.726Z,6.50
2023-02-19T13:56:37.363Z,5.18
2023-02-19T13:59:35.662Z,4.78
2023-02-19T14:02:03.808Z,5.05
2023-02-19T14:05:00.340Z,5.22
2023-02-19T14:07:27.222Z,6.00
2023-02-19T14:09:54.802Z,6.05
2023-02-19T14:12:30.594Z,6.63
2023-02-19T14:14:57.809Z,7.03
2023-02-19T14:17:41.952Z,7.57
2023-02-19T14:20:18.260Z,7.45
2023-02-19T14:22:52.623Z,8.15
2023-02-19T14:25:31.018Z,7.55
2023-02-19T14:28:35.573Z,6.70
2023-02-19T14:31:38.505Z,6.78
2023-02-19T14:34:14.526Z,8.02
2023-02-19T14:36:51.980Z,7.72
2023-02-19T14:39:21.393Z,9.20
2023-02-19T14:42:12.722Z,9.27
2023-02-19T14:44:55.031Z,7.50
2023-02-19T14:47:24.904Z,6.60
2023-02-19T14:49:54.097Z,7.38
2023-02-19T14:52:26.151Z,6.30
2023-02-19T14:54:56.853Z,5.80
2023-02-19T14:57:28.696Z,5.40
2023-02-19T14:59:59.269Z,5.05
2023-02-19T15:02:31.214Z,5.03
2023-02-19T15:04:58.348Z,6.68
2023-02-19T15:07:30.298Z,5.15
2023-02-19T15:10:05.663Z,4.57
2023-02-19T15:12:43.772Z,4.30
2023-02-19T15:15:28.194Z,4.45
2023-02-19T15:17:56.899Z,4.18
2023-02-19T15:20:27.646Z,3.80
2023-02-19T15:22:56.325Z,3.90
2023-02-19T15:25:27.561Z,4.03
2023-02-19T15:27:54.528Z,5.18
2023-02-19T15:30:30.218Z,4.10
2023-02-19T15:33:00.883Z,4.38
2023-02-19T15:35:29.703Z,4.13
2023-02-19T15:37:56.952Z,4.28
2023-02-19T15:40:31.027Z,4.20
2023-02-19T15:43:00.371Z,4.30
2023-02-19T15:45:36.629Z,3.92
2023-02-19T15:48:10.228Z,4.15
2023-02-19T15:50:44.167Z,4.35
2023-02-19T15:53:31.218Z,4.20
2023-02-19T15:56:21.988Z,4.35
2023-02-19T15:58:51.908Z,4.70
2023-02-19T16:01:36.604Z,4.90
2023-02-19T16:04:06.513Z,4.65
2023-02-19T16:06:52.846Z,4.22
2023-02-19T16:09:39.014Z,3.70
2023-02-19T16:12:24.470Z,3.65
2023-02-19T16:14:51.821Z,4.25
2023-02-19T16:17:23.131Z,4.07
2023-02-19T16:20:02.736Z,3.45
2023-02-19T16:22:41.933Z,4.07
2023-02-19T16:25:24.842Z,3.65
2023-02-19T16:27:52.303Z,4.82
2023-02-19T16:30:25.775Z,3.47
2023-02-19T16:33:33.625Z,3.88
2023-02-19T16:36:22.823Z,3.10
2023-02-19T16:39:18.958Z,3.38
2023-02-19T16:41:48.532Z,3.10
2023-02-19T16:44:21.569Z,3.22
2023-02-19T16:46:50.292Z,3.72
2023-02-19T16:49:17.631Z,3.45
2023-02-19T16:51:46.065Z,3.80
2023-02-19T16:54:13.619Z,3.80
2023-02-19T16:56:40.521Z,6.20
2023-02-19T16:59:08.105Z,6.35
2023-02-19T17:01:37.084Z,5.53
2023-02-19T17:04:11.535Z,4.68
2023-02-19T17:06:39.452Z,3.47
2023-02-19T17:09:08.601Z,6.93
2023-02-19T17:11:36.391Z,6.00
2023-02-19T17:14:03.402Z,4.90
2023-02-19T17:16:39.566Z,6.25
2023-02-19T17:19:13.545Z,6.53
2023-02-19T17:21:40.655Z,6.30
2023-02-19T17:24:08.020Z,4.70
2023-02-19T17:26:35.161Z,4.97
2023-02-19T17:29:06.040Z,4.70
2023-02-19T17:31:34.157Z,4.95
2023-02-19T17:34:01.366Z,5.30
2023-02-19T17:36:31.172Z,5.10
2023-02-19T17:38:59.740Z,8.27
2023-02-19T17:41:27.689Z,6.10
2023-02-19T17:43:54.909Z,5.90
2023-02-19T17:46:27.251Z,4.70
2023-02-19T17:48:54.990Z,5.10
2023-02-19T17:51:22.449Z,5.63
2023-02-19T17:53:49.560Z,5.43
2023-02-19T17:56:22.103Z,5.40
2023-02-19T17:58:49.758Z,5.43
2023-02-19T18:01:16.655Z,5.70
2023-02-19T18:03:44.301Z,6.55
2023-02-19T18:06:11.414Z,7.45
2023-02-19T18:08:38.421Z,7.45
2023-02-19T18:11:06.960Z,8.70
2023-02-19T18:13:33.769Z,8.20
2023-02-19T18:16:00.632Z,7.78
2023-02-19T18:18:27.623Z,8.32
2023-02-19T18:20:54.552Z,9.75
2023-02-19T18:23:21.545Z,9.98
2023-02-19T18:25:48.522Z,80.68
2023-02-19T18:28:15.993Z,14.48
2023-02-19T18:30:43.102Z,11.98
2023-02-19T18:33:13.462Z,10.30
2023-02-19T18:35:40.262Z,11.32
2023-02-19T18:38:07.129Z,11.55
2023-02-19T18:40:34.884Z,10.05
2023-02-19T18:43:01.686Z,10.30
2023-02-19T18:45:29.831Z,10.80
2023-02-19T18:47:56.886Z,11.43
2023-02-19T18:50:23.839Z,11.25
2023-02-19T18:52:51.533Z,11.13
2023-02-19T18:55:18.889Z,11.05
2023-02-19T18:57:46.989Z,10.15
2023-02-19T19:00:26.628Z,11.75
2023-02-19T19:02:59.935Z,10.95
2023-02-19T19:05:27.668Z,11.85
2023-02-19T19:07:56.548Z,10.73
2023-02-19T19:10:24.191Z,9.77
2023-02-19T19:12:51.193Z,10.80
2023-02-19T19:15:18.956Z,10.70
2023-02-19T19:17:46.967Z,10.13
2023-02-19T19:20:18.039Z,10.50
2023-02-19T19:22:45.250Z,11.10
2023-02-19T19:25:12.316Z,11.52
2023-02-19T19:27:39.304Z,11.48
2023-02-19T19:30:07.133Z,10.88
2023-02-19T19:32:34.174Z,10.80
2023-02-19T19:35:01.076Z,9.60
2023-02-19T19:37:29.326Z,10.45
2023-02-19T19:39:56.598Z,11.55
2023-02-19T19:42:23.866Z,10.32
2023-02-19T19:44:51.428Z,10.75
2023-02-19T19:47:19.353Z,11.27
2023-02-19T19:49:47.376Z,11.90
2023-02-19T19:52:14.948Z,11.50
2023-02-19T19:54:43.313Z,13.52
2023-02-19T19:57:10.928Z,16.00
2023-02-19T19:59:39.528Z,19.15
2023-02-19T20:02:08.040Z,27.05
2023-02-19T20:04:35.156Z,23.75
2023-02-19T20:07:02.838Z,31.40
2023-02-19T20:09:29.938Z,27.67
2023-02-19T20:11:57.071Z,23.67
2023-02-19T20:14:25.272Z,19.08
2023-02-19T20:16:53.126Z,22.33
2023-02-19T20:19:20.470Z,18.02
2023-02-19T20:21:50.269Z,13.50
2023-02-19T20:24:31.136Z,13.13
2023-02-19T20:27:00.329Z,13.02
2023-02-19T20:29:29.152Z,12.70
2023-02-19T20:31:59.618Z,11.57
2023-02-19T20:34:27.307Z,12.75
2023-02-19T20:36:54.578Z,12.82
2023-02-19T20:39:22.618Z,12.68
2023-02-19T20:41:51.730Z,13.05
2023-02-19T20:44:19.302Z,13.50
2023-02-19T20:46:49.393Z,13.13
2023-02-19T20:49:18.308Z,12.40
2023-02-19T20:51:50.769Z,13.10
2023-02-19T20:54:18.956Z,13.48
2023-02-19T20:56:51.119Z,13.10
2023-02-19T20:59:18.807Z,14.43
2023-02-19T21:01:46.081Z,14.43
2023-02-19T21:04:14.308Z,14.40
2023-02-19T21:06:41.484Z,13.60
2023-02-19T21:09:08.662Z,13.57
2023-02-19T21:11:35.900Z,13.05
2023-02-19T21:14:03.064Z,13.68
2023-02-19T21:16:31.950Z,14.88
2023-02-19T21:18:59.607Z,13.60
2023-02-19T21:21:26.635Z,14.60
2023-02-19T21:23:58.200Z,13.95
2023-02-19T21:26:32.399Z,13.85
2023-02-19T21:28:59.295Z,13.90
2023-02-19T21:31:39.394Z,12.75
2023-02-19T21:34:08.381Z,13.82
2023-02-19T21:36:35.999Z,14.25
2023-02-19T21:39:05.374Z,13.27
2023-02-19T21:41:32.735Z,14.50
2023-02-19T21:43:59.845Z,13.98
2023-02-19T21:46:26.912Z,14.05
2023-02-19T21:48:56.040Z,13.57
2023-02-19T21:51:29.295Z,14.05
2023-02-19T21:53:56.148Z,13.40
2023-02-19T21:56:25.690Z,13.13
2023-02-19T21:58:52.532Z,13.48
2023-02-19T22:01:21.179Z,12.60
2023-02-19T22:03:48.691Z,11.15
2023-02-19T22:06:16.267Z,12.27
2023-02-19T22:08:44.470Z,11.55
2023-02-19T22:11:11.414Z,11.55
2023-02-19T22:13:39.751Z,12.07
2023-02-19T22:16:09.133Z,11.60
2023-02-19T22:18:36.165Z,12.20
2023-02-19T22:21:06.563Z,10.15
2023-02-19T22:23:33.390Z,10.48
2023-02-19T22:26:00.274Z,10.48
2023-02-19T22:28:27.065Z,12.63
2023-02-19T22:30:53.931Z,16.85
2023-02-19T22:33:20.814Z,13.60
2023-02-19T22:35:47.679Z,12.90
2023-02-19T22:38:14.492Z,11.13
2023-02-19T22:40:41.557Z,10.35
2023-02-19T22:43:08.452Z,11.48
2023-02-19T22:45:35.407Z,10.20
2023-02-19T22:48:02.523Z,9.95
2023-02-19T22:50:29.598Z,9.48
2023-02-19T22:52:56.669Z,10.45
2023-02-19T22:55:23.621Z,10.02
2023-02-19T22:57:50.461Z,9.32
2023-02-19T23:00:21.015Z,10.73
2023-02-19T23:02:49.066Z,11.25
2023-02-19T23:05:16.723Z,10.88
2023-02-19T23:07:45.299Z,11.52
2023-02-19T23:10:13.350Z,12.85
2023-02-19T23:12:40.987Z,12.23
2023-02-19T23:15:09.727Z,12.13
2023-02-19T23:17:36.740Z,11.43
2023-02-19T23:20:04.262Z,12.15
2023-02-19T23:22:34.126Z,11.90
2023-02-19T23:25:01.714Z,11.23
2023-02-19T23:27:28.718Z,10.80
2023-02-19T23:29:56.351Z,11.70
2023-02-19T23:32:23.866Z,10.40
2023-02-19T23:34:51.339Z,10.43
2023-02-19T23:37:18.261Z,10.57
2023-02-19T23:39:45.118Z,10.43
2023-02-19T23:42:16.655Z,10.00
2023-02-19T23:44:47.790Z,9.57
2023-02-19T23:47:15.179Z,9.70
2023-02-19T23:49:42.005Z,9.90
2023-02-19T23:52:09.020Z,9.55
2023-02-19T23:54:36.066Z,9.95
2023-02-19T23:57:03.166Z,7.85
2023-02-19T23:59:30.349Z,9.40
